Time;durP1;ratioP1;P1;durP2;ratioP2;P2;SDS_P1;SDS_P2;PMS_P1;PMS_P2;Temp;Humidity;BMP_temperature;BMP_pressure;BME280_temperature;BME280_humidity;BME280_pressure;Samples;Min_cycle;Max_cycle;Signal;HPM_P1;HPM_P2
2024/03/20 00:00:10;;;;;;;0.30;0.30;;;;;;;6.86;62.30;96988.63;5044323;28;20057;-62
2024/03/20 00:02:36;;;;;;;0.40;0.40;;;;;;;7.29;62.81;97041.09;5060242;28;20435;-62
2024/03/20 00:05:03;;;;;;;0.30;0.30;;;;;;;7.08;62.68;97034.94;5044171;28;20056;-62
2024/03/20 00:07:29;;;;;;;0.30;0.30;;;;;;;6.80;62.63;97001.03;5060680;28;20543;-62
2024/03/20 00:09:55;;;;;;;0.40;0.40;;;;;;;7.04;61.98;97028.53;5060893;28;20332;-62
2024/03/20 00:12:22;;;;;;;0.30;0.30;;;;;;;6.97;62.22;97022.03;5060877;28;20059;-62
2024/03/20 00:14:50;;;;;;;0.30;0.30;;;;;;;6.66;63.75;96975.84;5044199;28;20049;-61
2024/03/20 00:17:16;;;;;;;0.30;0.30;;;;;;;6.89;63.83;97025.72;5061072;28;20060;-61
2024/03/20 00:19:42;;;;;;;0.30;0.30;;;;;;;6.80;64.18;97006.56;5060492;28;20091;-61
2024/03/20 00:22:08;;;;;;;0.30;0.30;;;;;;;6.87;64.46;97028.81;5060781;28;20145;-64
2024/03/20 00:24:34;;;;;;;0.40;0.40;;;;;;;6.85;63.78;97039.34;5044179;28;20498;-62
2024/03/20 00:27:00;;;;;;;0.30;0.30;;;;;;;6.62;63.70;96999.72;5061449;28;20092;-64
2024/03/20 00:29:27;;;;;;;0.32;0.32;;;;;;;6.76;63.30;97010.34;5061188;28;20056;-63
2024/03/20 00:31:55;;;;;;;0.30;0.30;;;;;;;6.87;63.23;97039.81;5060652;28;20061;-63
2024/03/20 00:34:21;;;;;;;0.30;0.30;;;;;;;5.57;64.56;97004.38;5060964;28;20056;-61
2024/03/20 00:36:47;;;;;;;0.30;0.30;;;;;;;3.86;64.72;96668.63;5060778;28;20052;-62
2024/03/20 00:39:13;;;;;;;0.30;0.30;;;;;;;6.09;65.08;97046.69;5044012;28;20056;-62
2024/03/20 00:41:39;;;;;;;0.30;0.30;;;;;;;5.66;66.00;96983.09;5060681;28;20165;-61
2024/03/20 00:44:05;;;;;;;0.30;0.30;;;;;;;5.53;66.92;97039.97;5060827;28;20159;-62
2024/03/20 00:46:30;;;;;;;0.30;0.30;;;;;;;5.88;67.43;97037.72;5060910;28;20443;-61
2024/03/20 00:48:56;;;;;;;0.30;0.30;;;;;;;5.55;67.62;97014.91;5060354;28;21643;-61
2024/03/20 00:51:22;;;;;;;0.30;0.30;;;;;;;5.33;69.41;97042.75;5060706;28;20113;-63
2024/03/20 00:53:48;;;;;;;0.30;0.30;;;;;;;5.34;69.42;97041.63;5060879;28;20093;-61
2024/03/20 00:56:14;;;;;;;0.30;0.30;;;;;;;5.23;68.96;97037.69;5060636;28;20060;-62
2024/03/20 00:58:39;;;;;;;0.20;0.20;;;;;;;4.81;69.34;96956.47;5060301;28;20498;-61
2024/03/20 01:01:05;;;;;;;0.30;0.30;;;;;;;5.19;70.36;97025.75;5060221;28;20056;-61
2024/03/20 01:03:32;;;;;;;0.30;0.30;;;;;;;4.57;69.70;97004.59;5061008;28;20088;-61
2024/03/20 01:05:57;;;;;;;0.30;0.30;;;;;;;5.01;70.90;97032.53;5060504;28;20060;-62
2024/03/20 01:08:23;;;;;;;0.30;0.30;;;;;;;4.94;70.54;97027.56;5060764;28;20162;-62
2024/03/20 01:10:49;;;;;;;0.30;0.30;;;;;;;4.87;70.73;97021.00;5060177;28;20052;-61
2024/03/20 01:13:15;;;;;;;0.30;0.30;;;;;;;4.78;69.71;97018.31;5060144;28;20092;-60
2024/03/20 01:15:40;;;;;;;0.30;0.30;;;;;;;4.83;70.66;97028.28;5046902;28;20052;-60
2024/03/20 01:18:06;;;;;;;0.30;0.30;;;;;;;4.73;70.49;97042.41;5064052;28;20105;-62
2024/03/20 01:20:32;;;;;;;0.30;0.30;;;;;;;4.57;71.70;97026.53;5064242;28;20113;-61
2024/03/20 01:22:58;;;;;;;0.30;0.30;;;;;;;4.43;71.49;97034.19;5064430;28;20109;-59
2024/03/20 01:25:24;;;;;;;0.30;0.30;;;;;;;4.44;71.26;97022.09;5047254;28;20097;-61
2024/03/20 01:27:50;;;;;;;0.28;0.28;;;;;;;4.03;70.98;96956.19;5047116;28;20060;-61
2024/03/20 01:30:16;;;;;;;0.22;0.22;;;;;;;4.53;70.06;97036.56;5063439;28;20048;-62
2024/03/20 01:32:41;;;;;;;0.20;0.20;;;;;;;4.43;70.63;97022.41;5063730;28;20052;-61
2024/03/20 01:35:08;;;;;;;0.30;0.30;;;;;;;4.41;71.28;97033.72;5063912;28;20133;-61
2024/03/20 01:37:34;;;;;;;0.30;0.30;;;;;;;3.98;70.48;96961.84;5047207;28;20075;-60
2024/03/20 01:40:00;;;;;;;0.30;0.30;;;;;;;4.51;70.29;97044.31;5063419;28;20307;-60
2024/03/20 01:42:26;;;;;;;0.30;0.30;;;;;;;4.45;71.11;97045.66;5046622;28;20064;-61
2024/03/20 01:45:21;;;;;;;0.20;0.20;;;;;;;4.42;72.05;97043.56;5063747;28;20560;-60
2024/03/20 01:47:47;;;;;;;0.30;0.30;;;;;;;4.31;72.22;97045.06;5042950;28;20057;-61
2024/03/20 01:50:14;;;;;;;0.30;0.30;;;;;;;4.12;71.07;97000.81;5052037;28;20453;-60
2024/03/20 01:52:54;;;;;;;0.30;0.30;;;;;;;4.49;70.29;97045.75;5043564;28;20045;-60
2024/03/20 01:55:22;;;;;;;0.30;0.30;;;;;;;4.48;71.04;97041.41;5042839;28;20068;-61
2024/03/20 01:57:49;;;;;;;0.30;0.30;;;;;;;3.87;71.04;97061.97;5043272;28;20515;-60
2024/03/20 02:00:21;;;;;;;0.30;0.30;;;;;;;4.02;71.93;97050.50;5043031;28;20447;-62
2024/03/20 02:02:50;;;;;;;0.30;0.30;;;;;;;4.20;72.79;97043.03;5043446;28;20134;-61
2024/03/20 02:05:17;;;;;;;0.20;0.20;;;;;;;2.54;72.04;96782.56;5043133;28;20419;-59
2024/03/20 02:07:43;;;;;;;0.20;0.20;;;;;;;3.50;71.20;96933.22;5043326;28;20053;-61
2024/03/20 02:10:10;;;;;;;0.20;0.20;;;;;;;4.36;70.79;97046.81;5043102;28;20056;-59
2024/03/20 02:12:35;;;;;;;0.20;0.20;;;;;;;3.83;71.70;96976.13;5043880;28;20056;-59
2024/03/20 02:15:09;;;;;;;0.20;0.20;;;;;;;4.21;72.05;97050.09;5044023;28;20052;-60
2024/03/20 02:17:39;;;;;;;0.28;0.28;;;;;;;3.99;73.56;97021.03;5044032;28;20439;-61
2024/03/20 02:20:06;;;;;;;0.30;0.30;;;;;;;4.18;72.82;97057.06;5042972;28;20494;-60
2024/03/20 02:22:40;;;;;;;0.20;0.20;;;;;;;3.67;72.16;96994.22;5027585;28;20079;-59
2024/03/20 02:25:06;;;;;;;0.20;0.20;;;;;;;3.71;72.74;97000.66;5062590;28;20059;-60
2024/03/20 02:27:32;;;;;;;0.30;0.30;;;;;;;4.00;73.04;97069.22;5061979;28;20518;-61
2024/03/20 02:29:57;;;;;;;0.20;0.20;;;;;;;3.99;72.67;97067.59;5062366;28;20060;-61
2024/03/20 02:32:23;;;;;;;0.30;0.30;;;;;;;4.01;72.41;97076.31;5062650;28;20059;-60
2024/03/20 02:34:49;;;;;;;0.30;0.30;;;;;;;4.07;72.72;97060.47;5045782;28;20064;-60
2024/03/20 02:37:14;;;;;;;0.20;0.20;;;;;;;3.77;71.98;97032.22;5062399;28;20052;-62
2024/03/20 02:39:40;;;;;;;0.30;0.30;;;;;;;3.86;72.20;97079.56;5045705;28;20052;-59
2024/03/20 02:42:06;;;;;;;0.28;0.28;;;;;;;3.93;71.64;97079.88;5062649;28;20514;-60
2024/03/20 02:44:32;;;;;;;0.20;0.20;;;;;;;3.85;71.92;97064.28;5046002;28;20099;-61
2024/03/20 02:46:58;;;;;;;0.30;0.30;;;;;;;3.80;72.46;97080.88;5062410;28;20052;-61
2024/03/20 02:49:24;;;;;;;0.20;0.20;;;;;;;3.84;72.77;97081.81;5062778;28;20052;-61
2024/03/20 02:51:49;;;;;;;0.30;0.30;;;;;;;3.43;74.77;97078.81;5052316;28;20117;-60
2024/03/20 02:54:15;;;;;;;0.30;0.30;;;;;;;3.35;76.47;97082.38;5038999;28;20062;-59
2024/03/20 02:56:41;;;;;;;0.30;0.30;;;;;;;3.43;76.31;97087.03;5045667;28;20533;-60
2024/03/20 02:59:06;;;;;;;0.30;0.30;;;;;;;3.24;77.22;97094.00;5062416;28;20060;-61
2024/03/20 03:01:32;;;;;;;0.28;0.28;;;;;;;3.04;78.15;97076.28;5049451;28;20531;-60
2024/03/20 03:03:58;;;;;;;0.30;0.30;;;;;;;3.24;77.88;97097.50;5024475;28;20534;-62
2024/03/20 03:06:24;;;;;;;0.20;0.20;;;;;;;2.92;77.35;97037.81;5041575;28;20115;-62
2024/03/20 03:08:49;;;;;;;0.30;0.30;;;;;;;3.16;78.59;97081.94;5041808;28;20092;-60
2024/03/20 03:11:15;;;;;;;0.20;0.20;;;;;;;3.20;77.43;97088.34;5041900;28;20428;-60
2024/03/20 03:13:41;;;;;;;0.30;0.30;;;;;;;3.20;78.20;97103.97;5041743;28;20055;-60
2024/03/20 03:16:13;;;;;;;0.30;0.30;;;;;;;3.25;79.66;97099.16;5041623;28;20258;-60
2024/03/20 03:18:39;;;;;;;0.20;0.20;;;;;;;3.32;80.11;97107.66;5041788;28;20063;-62
2024/03/20 03:21:12;;;;;;;0.30;0.30;;;;;;;3.20;80.06;97098.47;5041404;28;20425;-61
2024/03/20 03:23:38;;;;;;;0.30;0.30;;;;;;;2.90;80.02;97056.47;5047927;28;20478;-60
2024/03/20 03:26:04;;;;;;;0.30;0.30;;;;;;;3.29;80.23;97113.78;5061454;28;20056;-61
2024/03/20 03:28:31;;;;;;;0.30;0.30;;;;;;;0.71;80.01;96711.31;5045279;28;20291;-61
2024/03/20 03:30:59;;;;;;;0.20;0.20;;;;;;;2.52;79.94;96989.84;5061743;28;20318;-61
2024/03/20 03:33:25;;;;;;;0.20;0.20;;;;;;;3.09;78.84;97070.63;5061990;28;20586;-60
2024/03/20 03:35:50;;;;;;;0.30;0.30;;;;;;;3.29;79.13;97102.84;5044805;28;20058;-61
2024/03/20 03:38:16;;;;;;;0.20;0.20;;;;;;;3.22;80.56;97105.25;5060593;28;20058;-60
2024/03/20 03:40:42;;;;;;;0.20;0.20;;;;;;;3.16;80.18;97103.81;5051478;28;20371;-62
2024/03/20 03:43:08;;;;;;;0.20;0.20;;;;;;;3.09;79.35;97103.47;5053632;28;20067;-60
2024/03/20 03:45:33;;;;;;;0.22;0.22;;;;;;;2.90;80.96;97111.19;5061403;28;20561;-61
2024/03/20 03:47:59;;;;;;;0.20;0.20;;;;;;;2.97;81.73;97106.84;5044434;28;20137;-60
2024/03/20 03:50:25;;;;;;;0.22;0.22;;;;;;;2.17;81.83;96983.50;5061185;28;20052;-59
2024/03/20 03:52:51;;;;;;;0.30;0.30;;;;;;;3.02;81.85;97114.06;5061300;28;20139;-63
2024/03/20 03:55:16;;;;;;;0.30;0.30;;;;;;;2.95;81.36;97130.19;5060995;28;20463;-61
2024/03/20 03:57:42;;;;;;;0.22;0.22;;;;;;;2.97;81.49;97127.94;5061448;28;20478;-60
2024/03/20 04:00:10;;;;;;;0.20;0.20;;;;;;;2.91;81.39;97134.66;5061058;28;20450;-60
2024/03/20 04:02:36;;;;;;;0.20;0.20;;;;;;;2.89;80.97;97136.94;5061405;28;20056;-60
2024/03/20 04:05:04;;;;;;;0.30;0.30;;;;;;;2.38;80.43;97088.38;5060879;28;20549;-62
2024/03/20 04:07:31;;;;;;;0.28;0.28;;;;;;;2.49;81.94;97143.56;5060743;28;20055;-60
2024/03/20 04:09:56;;;;;;;0.20;0.20;;;;;;;2.64;82.13;97143.16;5060932;28;20044;-60
2024/03/20 04:12:22;;;;;;;0.20;0.20;;;;;;;2.21;82.88;97076.59;5044277;28;20048;-62
2024/03/20 04:14:48;;;;;;;0.22;0.22;;;;;;;2.78;82.43;97141.88;5044015;28;20063;-61
2024/03/20 04:17:14;;;;;;;0.20;0.20;;;;;;;2.83;81.46;97154.59;5061058;28;20115;-62
2024/03/20 04:19:39;;;;;;;0.30;0.30;;;;;;;2.64;81.24;97156.81;5060795;28;20056;-62
2024/03/20 04:22:06;;;;;;;0.20;0.20;;;;;;;2.67;83.14;97151.50;5061612;28;20126;-61
2024/03/20 04:24:32;;;;;;;0.20;0.20;;;;;;;2.30;83.09;97096.53;5061140;28;20078;-63
2024/03/20 04:26:57;;;;;;;0.30;0.30;;;;;;;2.68;83.21;97146.84;5043934;28;20078;-61
2024/03/20 04:29:23;;;;;;;0.20;0.20;;;;;;;2.55;83.37;97148.56;5043863;28;20346;-60
2024/03/20 04:31:49;;;;;;;0.30;0.30;;;;;;;1.26;83.16;96955.22;5060538;28;20053;-61
2024/03/20 04:34:15;;;;;;;0.20;0.20;;;;;;;2.54;82.60;97173.50;5044243;28;20521;-60
2024/03/20 04:36:41;;;;;;;0.30;0.30;;;;;;;2.30;83.05;97124.69;5061028;28;20060;-61
2024/03/20 04:39:07;;;;;;;0.20;0.20;;;;;;;2.54;82.90;97163.38;5044237;28;20559;-59
2024/03/20 04:41:33;;;;;;;0.20;0.20;;;;;;;2.49;83.17;97168.16;5060187;28;20056;-60
2024/03/20 04:43:59;;;;;;;0.30;0.30;;;;;;;2.62;83.13;97169.97;5060351;28;20380;-61
2024/03/20 04:46:25;;;;;;;0.30;0.30;;;;;;;2.66;82.58;97166.31;5060200;28;20048;-60
2024/03/20 04:48:50;;;;;;;0.20;0.20;;;;;;;2.38;82.72;97136.75;5060358;28;20055;-62
2024/03/20 04:51:16;;;;;;;0.20;0.20;;;;;;;2.77;82.55;97172.28;5064439;28;20057;-60
2024/03/20 04:53:42;;;;;;;0.30;0.30;;;;;;;2.69;81.49;97154.72;5064519;28;20057;-61
2024/03/20 04:56:08;;;;;;;0.28;0.28;;;;;;;2.81;81.32;97170.53;5064228;28;20061;-61
2024/03/20 04:58:33;;;;;;;0.20;0.20;;;;;;;1.68;80.53;96991.19;5047623;28;20380;-61
2024/03/20 05:00:59;;;;;;;0.25;0.25;;;;;;;2.79;80.77;97189.19;5047535;28;20056;-60
2024/03/20 05:03:25;;;;;;;0.30;0.30;;;;;;;2.18;80.85;97072.53;5064588;28;20056;-60
2024/03/20 05:05:50;;;;;;;0.20;0.20;;;;;;;2.98;80.04;97203.41;5047857;28;20675;-61
2024/03/20 05:08:16;;;;;;;0.25;0.25;;;;;;;1.77;79.00;97005.72;5064545;28;20125;-60
2024/03/20 05:10:42;;;;;;;0.20;0.20;;;;;;;3.07;78.69;97198.75;5064731;28;20060;-61
2024/03/20 05:13:08;;;;;;;0.20;0.20;;;;;;;3.06;80.92;97199.88;5064584;28;20052;-62
2024/03/20 05:15:40;;;;;;;0.30;0.30;;;;;;;3.25;80.59;97200.41;5047491;28;20048;-61
2024/03/20 05:18:06;;;;;;;0.20;0.20;;;;;;;3.31;80.34;97196.38;5064405;28;20057;-62
2024/03/20 05:20:31;;;;;;;0.25;0.25;;;;;;;3.33;80.65;97196.88;5063728;28;20510;-60
2024/03/20 05:22:57;;;;;;;0.20;0.20;;;;;;;3.57;79.88;97207.38;5063715;28;20057;-61
2024/03/20 05:25:23;;;;;;;0.20;0.20;;;;;;;3.34;76.82;97160.16;5063390;28;20048;-61
2024/03/20 05:27:48;;;;;;;0.30;0.30;;;;;;;3.73;75.36;97216.72;5063734;28;20057;-60
2024/03/20 05:30:14;;;;;;;0.20;0.20;;;;;;;3.78;76.22;97209.13;5047647;28;20048;-60
2024/03/20 05:32:40;;;;;;;0.20;0.20;;;;;;;3.71;77.16;97217.06;5048139;28;20053;-62
2024/03/20 05:35:06;;;;;;;0.30;0.30;;;;;;;3.45;76.04;97169.66;5043673;28;20061;-60
2024/03/20 05:37:32;;;;;;;0.20;0.20;;;;;;;3.83;75.87;97225.41;5051179;28;20059;-60
2024/03/20 05:39:58;;;;;;;0.30;0.30;;;;;;;3.84;75.49;97224.28;5045130;28;20352;-61
2024/03/20 05:42:24;;;;;;;0.20;0.20;;;;;;;2.61;77.59;97130.88;5042916;28;20056;-61
2024/03/20 05:44:49;;;;;;;0.20;0.20;;;;;;;3.79;75.23;97227.22;5061645;28;20135;-60
2024/03/20 05:47:15;;;;;;;0.20;0.20;;;;;;;4.10;73.93;97232.50;5063441;28;20052;-59
2024/03/20 05:49:43;;;;;;;0.20;0.20;;;;;;;4.30;73.23;97221.66;5060894;28;20049;-62
2024/03/20 05:52:09;;;;;;;0.30;0.30;;;;;;;4.43;73.61;97241.78;5063781;28;20059;-60
2024/03/20 05:54:35;;;;;;;0.30;0.30;;;;;;;4.50;71.62;97192.75;5064339;28;20258;-60
2024/03/20 05:57:01;;;;;;;0.30;0.30;;;;;;;5.01;70.58;97236.44;5046889;28;20041;-60
2024/03/20 05:59:27;;;;;;;0.30;0.30;;;;;;;4.84;69.85;97169.88;5063029;28;20057;-60
2024/03/20 06:01:52;;;;;;;0.22;0.22;;;;;;;5.30;68.23;97221.91;5045090;28;20057;-60
2024/03/20 06:04:18;;;;;;;0.30;0.30;;;;;;;5.60;66.59;97240.78;5062734;28;20060;-60
2024/03/20 06:06:45;;;;;;;0.30;0.30;;;;;;;5.67;66.27;97243.03;5062937;28;20052;-61
2024/03/20 06:09:13;;;;;;;0.30;0.30;;;;;;;5.30;65.47;97249.38;5046344;28;20052;-60
2024/03/20 06:11:42;;;;;;;0.30;0.30;;;;;;;5.84;65.27;97242.91;5063200;28;20056;-61
2024/03/20 06:14:08;;;;;;;0.20;0.20;;;;;;;5.49;64.83;97176.41;5062754;28;20071;-59
2024/03/20 06:16:34;;;;;;;0.30;0.30;;;;;;;6.19;63.76;97247.00;5062743;28;20056;-60
2024/03/20 06:18:59;;;;;;;0.30;0.30;;;;;;;6.39;61.83;97248.09;5063141;28;20090;-61
2024/03/20 06:21:25;;;;;;;0.30;0.30;;;;;;;6.60;60.57;97238.69;5063451;28;20083;-60
2024/03/20 06:23:51;;;;;;;0.40;0.40;;;;;;;6.80;59.98;97237.78;5046845;28;20056;-60
2024/03/20 06:26:16;;;;;;;0.30;0.30;;;;;;;6.86;59.39;97241.94;5062928;28;20541;-61
2024/03/20 06:28:42;;;;;;;0.30;0.30;;;;;;;7.04;59.78;97254.38;5063174;28;20044;-61
2024/03/20 06:31:08;;;;;;;0.30;0.30;;;;;;;6.70;59.31;97177.66;5046559;28;20056;-60
2024/03/20 06:33:34;;;;;;;0.40;0.40;;;;;;;7.43;58.21;97248.19;5063278;28;20484;-61
2024/03/20 06:36:00;;;;;;;0.40;0.40;;;;;;;7.57;58.94;97251.38;5045582;28;20048;-61
2024/03/20 06:38:26;;;;;;;0.30;0.30;;;;;;;6.50;58.30;97079.50;5062595;28;20051;-63
2024/03/20 06:40:51;;;;;;;0.40;0.40;;;;;;;7.57;57.64;97204.53;5035052;28;20052;-60
2024/03/20 06:43:17;;;;;;;0.40;0.40;;;;;;;8.02;57.62;97250.38;5057820;28;20057;-61
2024/03/20 06:45:49;;;;;;;0.40;0.40;;;;;;;8.17;56.09;97228.38;5062674;28;20056;-59
2024/03/20 06:48:18;;;;;;;0.40;0.40;;;;;;;8.03;55.64;97235.47;5046060;28;20470;-60
2024/03/20 06:50:46;;;;;;;0.40;0.40;;;;;;;8.08;54.23;97260.84;5046000;28;20053;-61
2024/03/20 06:53:13;;;;;;;0.40;0.40;;;;;;;7.79;52.38;97268.59;5062308;28;20110;-60
2024/03/20 06:55:43;;;;;;;0.40;0.40;;;;;;;7.83;53.83;97252.97;5061741;28;20538;-61
2024/03/20 06:58:11;;;;;;;0.40;0.40;;;;;;;8.33;54.40;97272.66;5058044;28;20428;-61
2024/03/20 07:00:37;;;;;;;0.40;0.40;;;;;;;7.68;50.98;97200.13;5041960;28;20071;-61
2024/03/20 07:03:03;;;;;;;0.40;0.40;;;;;;;8.32;52.08;97287.59;5042261;28;20573;-61
2024/03/20 07:05:30;;;;;;;0.40;0.40;;;;;;;8.62;52.01;97280.56;5041543;28;20064;-60
2024/03/20 07:07:56;;;;;;;0.40;0.40;;;;;;;8.34;51.99;97290.81;5024756;28;20535;-61
2024/03/20 07:10:21;;;;;;;0.40;0.40;;;;;;;7.90;51.77;97165.75;5041828;28;20079;-60
2024/03/20 07:12:47;;;;;;;0.40;0.40;;;;;;;9.04;52.25;97277.00;5041793;28;20293;-60
2024/03/20 07:15:13;;;;;;;0.50;0.50;;;;;;;9.28;51.26;97253.94;5041743;28;20111;-61
2024/03/20 07:17:40;;;;;;;0.40;0.40;;;;;;;9.64;50.51;97289.59;5041321;28;20123;-60
2024/03/20 07:20:09;;;;;;;0.50;0.50;;;;;;;9.92;50.33;97289.47;5042134;28;20065;-61
2024/03/20 07:22:38;;;;;;;0.50;0.50;;;;;;;10.14;49.96;97286.88;5055502;28;20055;-60
2024/03/20 07:25:07;;;;;;;0.50;0.50;;;;;;;10.26;47.91;97297.81;5054870;28;20049;-78
2024/03/20 07:27:34;;;;;;;0.47;0.47;;;;;;;10.30;46.08;97295.13;5061488;28;20045;-71
2024/03/20 07:30:01;;;;;;;0.50;0.50;;;;;;;10.44;43.79;97290.72;5062085;28;20060;-79
2024/03/20 07:32:27;;;;;;;0.50;0.50;;;;;;;10.50;42.69;97294.78;5044515;28;20044;-71
2024/03/20 07:34:53;;;;;;;0.50;0.50;;;;;;;10.19;42.46;97283.84;5061724;28;20053;-61
2024/03/20 07:37:19;;;;;;;0.50;0.50;;;;;;;10.42;44.45;97286.69;5057142;28;20083;-59
2024/03/20 07:39:45;;;;;;;0.50;0.50;;;;;;;10.79;43.46;97289.81;5040633;28;20053;-62
2024/03/20 07:42:10;;;;;;;0.50;0.50;;;;;;;10.98;43.14;97292.56;5024728;28;20057;-66
2024/03/20 07:44:36;;;;;;;0.50;0.50;;;;;;;10.57;42.81;97294.91;5060837;28;20527;-61
2024/03/20 07:47:03;;;;;;;0.50;0.50;;;;;;;9.67;43.39;97260.44;5043119;28;20339;-68
2024/03/20 07:49:29;;;;;;;0.40;0.40;;;;;;;10.26;44.36;97300.59;5060067;28;20052;-66
2024/03/20 07:51:56;;;;;;;0.50;0.50;;;;;;;9.87;44.17;97226.94;5040803;28;20235;-66
2024/03/20 07:54:25;;;;;;;0.50;0.50;;;;;;;10.66;43.99;97292.75;5060159;28;20090;-75
2024/03/20 07:56:54;;;;;;;0.50;0.50;;;;;;;10.42;43.45;97243.19;5059925;28;20053;-75
2024/03/20 07:59:23;;;;;;;0.50;0.50;;;;;;;10.85;43.59;97294.72;5059656;28;20055;-69
2024/03/20 08:01:50;;;;;;;0.50;0.50;;;;;;;10.86;43.92;97284.44;5044134;28;20059;-71
2024/03/20 08:04:16;;;;;;;0.50;0.50;;;;;;;11.29;42.93;97292.38;5059672;28;20048;-69
2024/03/20 08:06:42;;;;;;;0.52;0.52;;;;;;;11.38;42.52;97288.19;5058870;28;20052;-72
2024/03/20 08:09:09;;;;;;;0.50;0.50;;;;;;;11.51;42.45;97289.59;5042795;28;20067;-66
2024/03/20 08:11:38;;;;;;;0.50;0.50;;;;;;;11.29;42.77;97276.53;5041869;28;20098;-61
2024/03/20 08:14:13;;;;;;;0.50;0.50;;;;;;;11.28;43.15;97246.41;5041265;28;20898;-59
2024/03/20 08:16:40;;;;;;;0.50;0.50;;;;;;;10.86;41.03;97240.09;5057484;28;20515;-60
2024/03/20 08:19:09;;;;;;;0.50;0.50;;;;;;;10.95;40.91;97258.09;5057952;28;20386;-59
2024/03/20 08:21:35;;;;;;;0.60;0.60;;;;;;;10.79;41.75;97300.91;5056941;28;20592;-59
2024/03/20 08:24:04;;;;;;;0.50;0.50;;;;;;;10.99;41.05;97288.63;5055374;28;20040;-68
2024/03/20 08:26:30;;;;;;;0.50;0.50;;;;;;;11.24;40.97;97285.16;5040927;28;20053;-71
2024/03/20 08:28:56;;;;;;;0.50;0.50;;;;;;;11.11;41.46;97285.72;5057712;28;20550;-72
2024/03/20 08:31:22;;;;;;;0.50;0.50;;;;;;;10.77;42.34;97320.66;5042157;28;20053;-73
2024/03/20 08:33:48;;;;;;;0.50;0.50;;;;;;;10.32;41.71;97279.75;5058238;28;20052;-71
2024/03/20 08:36:14;;;;;;;0.50;0.50;;;;;;;10.57;42.09;97267.22;5057836;28;20554;-59
2024/03/20 08:38:40;;;;;;;0.50;0.50;;;;;;;10.61;42.07;97267.31;5060864;28;20147;-60
2024/03/20 08:41:06;;;;;;;0.50;0.50;;;;;;;10.15;42.67;97277.41;5060051;28;20056;-60
2024/03/20 08:43:33;;;;;;;0.50;0.50;;;;;;;9.79;43.38;97219.63;5060090;28;20075;-60
2024/03/20 08:46:00;;;;;;;0.40;0.40;;;;;;;9.92;42.03;97279.22;5059902;28;20059;-59
2024/03/20 08:48:28;;;;;;;0.50;0.50;;;;;;;10.30;41.83;97273.78;5060218;28;20477;-61
2024/03/20 08:50:54;;;;;;;0.50;0.50;;;;;;;10.55;42.69;97324.97;5060139;28;20114;-60
2024/03/20 08:53:20;;;;;;;0.50;0.50;;;;;;;10.62;42.12;97269.69;5052685;28;20259;-75
2024/03/20 08:55:47;;;;;;;0.50;0.50;;;;;;;10.82;43.24;97266.91;5060320;28;20541;-60
2024/03/20 08:58:13;;;;;;;0.50;0.50;;;;;;;10.52;42.75;97275.84;5059753;28;20114;-62
2024/03/20 09:00:39;;;;;;;0.40;0.40;;;;;;;8.68;41.93;96954.13;5059915;28;20066;-73
2024/03/20 09:03:05;;;;;;;0.50;0.50;;;;;;;10.63;42.06;97271.31;5059374;28;20485;-60
2024/03/20 09:05:31;;;;;;;0.40;0.40;;;;;;;10.36;42.32;97261.25;5043195;28;20056;-68
2024/03/20 09:07:57;;;;;;;0.50;0.50;;;;;;;9.96;42.33;97205.38;5059273;28;20060;-70
2024/03/20 09:10:23;;;;;;;0.50;0.50;;;;;;;10.39;41.60;97266.06;5059540;28;20051;-70
2024/03/20 09:12:49;;;;;;;0.40;0.40;;;;;;;9.52;43.25;97203.16;5059505;28;20575;-73
2024/03/20 09:15:15;;;;;;;0.50;0.50;;;;;;;10.25;43.19;97238.09;5060324;28;20107;-70
2024/03/20 09:17:41;;;;;;;0.50;0.50;;;;;;;10.00;43.16;97231.19;5059646;28;20507;-70
2024/03/20 09:20:15;;;;;;;0.50;0.50;;;;;;;10.91;42.73;97270.28;5059497;28;20515;-60
2024/03/20 09:22:46;;;;;;;0.50;0.50;;;;;;;7.35;41.88;96691.75;5060503;28;20121;-70
2024/03/20 09:25:13;;;;;;;0.50;0.50;;;;;;;11.05;40.36;97265.00;5047165;28;20133;-69
2024/03/20 09:27:39;;;;;;;0.50;0.50;;;;;;;11.12;40.67;97254.03;5041843;28;20533;-69
2024/03/20 09:30:06;;;;;;;0.50;0.50;;;;;;;11.63;41.18;97258.13;5045892;28;20420;-75
2024/03/20 09:32:32;;;;;;;0.50;0.50;;;;;;;11.44;41.12;97258.19;5043042;28;20596;-59
2024/03/20 09:34:58;;;;;;;0.50;0.50;;;;;;;11.38;40.46;97257.66;5059484;28;20613;-62
2024/03/20 09:37:29;;;;;;;0.50;0.50;;;;;;;11.29;39.94;97270.19;5061421;28;20534;-61
2024/03/20 09:39:55;;;;;;;0.50;0.50;;;;;;;10.91;39.95;97176.06;5062785;28;20058;-60
2024/03/20 09:42:25;;;;;;;0.50;0.50;;;;;;;10.92;39.60;97255.25;5059831;28;20500;-61
2024/03/20 09:44:51;;;;;;;0.50;0.50;;;;;;;11.52;39.76;97252.34;5055050;28;20053;-72
2024/03/20 09:47:17;;;;;;;0.50;0.50;;;;;;;11.89;39.87;97211.75;5062751;28;20056;-69
2024/03/20 09:49:47;;;;;;;0.50;0.50;;;;;;;11.52;39.21;97129.50;5062482;28;20064;-64
2024/03/20 09:52:13;;;;;;;0.50;0.50;;;;;;;12.02;38.34;97168.72;5063059;28;20089;-62
2024/03/20 09:54:41;;;;;;;0.57;0.57;;;;;;;10.75;38.47;96956.50;5062332;28;20078;-73
2024/03/20 09:57:13;;;;;;;0.50;0.50;;;;;;;12.84;38.26;97237.19;5062566;28;20403;-74
2024/03/20 09:59:40;;;;;;;0.60;0.60;;;;;;;12.55;38.41;97165.78;5062653;28;20052;-64
2024/03/20 10:02:09;;;;;;;0.60;0.60;;;;;;;13.16;37.30;97241.94;5045834;28;20522;-60
2024/03/20 10:04:36;;;;;;;0.60;0.60;;;;;;;13.20;36.82;97253.09;5061799;28;20059;-61
2024/03/20 10:07:15;;;;;;;0.60;0.60;;;;;;;13.22;37.24;97207.03;5060171;28;20101;-58
2024/03/20 10:09:46;;;;;;;0.70;0.70;;;;;;;13.69;36.05;97240.44;5061495;28;20451;-69
2024/03/20 10:12:14;;;;;;;0.60;0.60;;;;;;;13.76;35.02;97233.31;5056634;28;20061;-75
2024/03/20 10:14:40;;;;;;;0.60;0.60;;;;;;;13.83;35.38;97236.16;5042065;28;20055;-61
2024/03/20 10:17:14;;;;;;;0.60;0.60;;;;;;;13.38;34.64;97193.66;5061839;28;20110;-75
2024/03/20 10:19:44;;;;;;;0.50;0.50;;;;;;;12.50;34.96;97085.56;5062701;28;20170;-60
2024/03/20 10:22:11;;;;;;;0.60;0.60;;;;;;;13.46;35.50;97200.88;5062442;28;20455;-72
2024/03/20 10:24:37;;;;;;;0.70;0.70;;;;;;;13.63;35.88;97232.81;5045656;28;20079;-75
2024/03/20 10:27:05;;;;;;;0.60;0.60;;;;;;;12.65;36.98;97232.59;5045427;28;20437;-79
2024/03/20 10:29:33;;;;;;;0.52;0.52;;;;;;;12.59;37.44;97233.31;5062151;28;20056;-61
2024/03/20 10:32:01;;;;;;;0.60;0.60;;;;;;;11.90;37.94;97245.88;5045337;28;20059;-63
2024/03/20 10:34:28;;;;;;;0.60;0.60;;;;;;;12.56;37.67;97162.63;5044463;28;20478;-75
2024/03/20 10:36:54;;;;;;;0.50;0.50;;;;;;;13.74;35.89;97232.91;5059192;28;20541;-70
2024/03/20 10:39:23;;;;;;;0.60;0.60;;;;;;;13.47;35.87;97134.88;5059945;28;20052;-63
2024/03/20 10:41:50;;;;;;;0.60;0.60;;;;;;;13.95;35.14;97227.47;5042779;28;20048;-59
2024/03/20 10:44:18;;;;;;;0.60;0.60;;;;;;;13.85;34.88;97222.66;5042087;28;20071;-76
2024/03/20 10:46:56;;;;;;;0.60;0.60;;;;;;;13.79;35.22;97225.00;5052093;28;20061;-74
2024/03/20 10:49:24;;;;;;;0.60;0.60;;;;;;;13.44;36.58;97224.69;5043664;28;20056;-62
2024/03/20 10:51:52;;;;;;;0.60;0.60;;;;;;;12.92;36.86;97220.19;5060140;28;20048;-71
2024/03/20 10:54:20;;;;;;;0.60;0.60;;;;;;;13.09;36.36;97208.47;5057152;28;20588;-63
2024/03/20 10:56:51;;;;;;;0.50;0.50;;;;;;;13.26;36.20;97151.44;5060369;28;20056;-64
2024/03/20 10:59:22;;;;;;;0.50;0.50;;;;;;;13.32;36.35;97203.56;5048754;28;20129;-63
2024/03/20 11:02:16;;;;;;;0.60;0.60;;;;;;;13.15;37.39;97201.38;5052165;28;20582;-72
2024/03/20 11:04:43;;;;;;;0.60;0.60;;;;;;;12.45;36.34;97167.28;5059853;28;20059;-63
2024/03/20 11:07:21;;;;;;;0.50;0.50;;;;;;;12.21;37.98;97201.09;5043978;28;20060;-63
2024/03/20 11:09:48;;;;;;;0.50;0.50;;;;;;;12.31;37.89;97205.19;5028478;28;20057;-75
2024/03/20 11:12:28;;;;;;;0.50;0.50;;;;;;;11.78;38.82;97210.00;5038228;28;20052;-59
2024/03/20 11:14:57;;;;;;;0.50;0.50;;;;;;;12.33;38.92;97202.84;5058923;28;20546;-72
2024/03/20 11:17:24;;;;;;;0.60;0.60;;;;;;;12.66;37.63;97203.63;5058986;28;20053;-67
2024/03/20 11:19:51;;;;;;;0.60;0.60;;;;;;;12.39;38.76;97184.66;5062090;28;20061;-66
2024/03/20 11:22:22;;;;;;;0.60;0.60;;;;;;;12.45;38.06;97194.25;5061421;28;20690;-61
2024/03/20 11:24:51;;;;;;;0.50;0.50;;;;;;;12.04;38.42;97201.66;5060403;28;20706;-60
2024/03/20 11:27:17;;;;;;;0.40;0.40;;;;;;;11.65;38.02;97208.63;5061065;28;20044;-60
2024/03/20 11:29:45;;;;;;;0.50;0.50;;;;;;;11.97;38.04;97168.22;5060782;28;20056;-60
2024/03/20 11:32:19;;;;;;;0.50;0.50;;;;;;;12.12;37.14;97181.13;5061319;28;20074;-69
2024/03/20 11:34:45;;;;;;;0.50;0.50;;;;;;;11.80;38.65;97135.50;5061064;28;20057;-60
2024/03/20 11:37:16;;;;;;;0.50;0.50;;;;;;;12.41;38.94;97185.09;5060944;28;20099;-71